Terminal Aerodrome Forecast
Issued by NWS

Home | Current Version | Previous Version | Text Only | Print | Product List | Glossary Off
Versions: 1 2 3 4 5 6 7 8 9 10 11 12 13 14 15

000
FTUS43 KMPX 181900 AAA
TAFAXN
TAF AMD
KAXN 181923Z 1819/1918 25006KT P6SM OVC019
     FM182015 22005KT P6SM SCT025
     FM190800 19009KT P6SM BKN150=

USA.gov is the U.S. government's official web portal to all federal, state and local government web resources and services.